createdAt,value
2023-02-19T00:02:12.779Z,98874.28
2023-02-19T00:04:40.258Z,98869.88
2023-02-19T00:07:07.635Z,98864.50
2023-02-19T00:09:34.583Z,98860.28
2023-02-19T00:12:01.560Z,98861.09
2023-02-19T00:14:28.518Z,98861.09
2023-02-19T00:16:55.925Z,98861.03
2023-02-19T00:19:23.459Z,98859.06
2023-02-19T00:21:54.513Z,98854.63
2023-02-19T00:24:22.536Z,98859.91
2023-02-19T00:26:50.065Z,98863.09
2023-02-19T00:29:20.198Z,98858.03
2023-02-19T00:31:48.422Z,98863.47
2023-02-19T00:34:15.934Z,98860.47
2023-02-19T00:36:44.080Z,98862.97
2023-02-19T00:39:15.332Z,98867.59
2023-02-19T00:41:43.344Z,98865.53
2023-02-19T00:44:11.665Z,98864.88
2023-02-19T00:46:41.618Z,98858.66
2023-02-19T00:49:17.046Z,98866.19
2023-02-19T00:51:44.394Z,98862.13
2023-02-19T00:54:12.896Z,98857.81
2023-02-19T00:56:41.081Z,98855.06
2023-02-19T00:59:08.829Z,98855.94
2023-02-19T01:01:36.228Z,98848.22
2023-02-19T01:04:06.429Z,98849.81
2023-02-19T01:06:34.703Z,98845.41
2023-02-19T01:09:03.656Z,98838.13
2023-02-19T01:11:31.018Z,98844.44
2023-02-19T01:13:59.590Z,98837.50
2023-02-19T01:16:27.613Z,98827.03
2023-02-19T01:18:55.127Z,98828.72
2023-02-19T01:21:25.099Z,98811.03
2023-02-19T01:23:53.607Z,98806.38
2023-02-19T01:26:23.440Z,98808.06
2023-02-19T01:28:50.865Z,98809.00
2023-02-19T01:31:21.250Z,98813.13
2023-02-19T01:33:59.492Z,98811.59
2023-02-19T01:36:27.739Z,98811.78
2023-02-19T01:38:55.867Z,98801.66
2023-02-19T01:41:25.241Z,98808.06
2023-02-19T01:44:15.846Z,98798.06
2023-02-19T01:46:44.195Z,98795.97
2023-02-19T01:49:34.191Z,98799.66
2023-02-19T01:52:30.804Z,98796.09
2023-02-19T01:54:58.840Z,98798.53
2023-02-19T01:57:28.226Z,98798.22
2023-02-19T02:00:04.388Z,98792.28
2023-02-19T02:02:41.622Z,98791.47
2023-02-19T02:05:21.957Z,98792.41
2023-02-19T02:08:07.872Z,98788.81
2023-02-19T02:10:35.311Z,98787.88
2023-02-19T02:13:03.112Z,98789.78
2023-02-19T02:15:49.953Z,98786.94
2023-02-19T02:18:32.072Z,98783.63
2023-02-19T02:21:27.103Z,98773.97
2023-02-19T02:23:57.570Z,98774.59
2023-02-19T02:26:26.854Z,98775.72
2023-02-19T02:29:23.680Z,98779.03
2023-02-19T02:32:27.925Z,98770.28
2023-02-19T02:35:04.525Z,98766.69
2023-02-19T02:37:35.946Z,98766.78
2023-02-19T02:40:05.596Z,98771.00
2023-02-19T02:42:34.861Z,98759.53
2023-02-19T02:45:36.312Z,98758.88
2023-02-19T02:48:18.117Z,98760.69
2023-02-19T02:51:07.138Z,98762.19
2023-02-19T02:54:22.694Z,98766.78
2023-02-19T02:56:51.057Z,98763.44
2023-02-19T02:59:25.941Z,98764.06
2023-02-19T03:02:14.084Z,98767.00
2023-02-19T03:05:14.391Z,98747.50
2023-02-19T03:07:41.998Z,98760.59
2023-02-19T03:10:14.722Z,98766.06
2023-02-19T03:13:05.408Z,98759.84
2023-02-19T03:16:00.026Z,98760.34
2023-02-19T03:18:48.859Z,98756.56
2023-02-19T03:21:20.937Z,98752.97
2023-02-19T03:24:08.282Z,98758.34
2023-02-19T03:26:37.181Z,98747.03
2023-02-19T03:29:23.319Z,98749.69
2023-02-19T03:31:57.892Z,98742.66
2023-02-19T03:34:51.717Z,98752.13
2023-02-19T03:37:37.578Z,98746.22
2023-02-19T03:40:05.293Z,98745.28
2023-02-19T03:42:32.619Z,98752.91
2023-02-19T03:45:22.513Z,98750.56
2023-02-19T03:48:35.024Z,98750.63
2023-02-19T03:51:33.436Z,98758.63
2023-02-19T03:54:29.268Z,98773.31
2023-02-19T03:57:32.249Z,98769.09
2023-02-19T04:00:36.728Z,98760.84
2023-02-19T04:03:21.006Z,98757.38
2023-02-19T04:05:53.067Z,98769.50
2023-02-19T04:08:22.657Z,98761.00
2023-02-19T04:11:00.091Z,98777.78
2023-02-19T04:13:45.477Z,98773.47
2023-02-19T04:16:19.909Z,98769.22
2023-02-19T04:18:49.742Z,98781.66
2023-02-19T04:21:17.360Z,98774.03
2023-02-19T04:23:45.934Z,98775.72
2023-02-19T04:26:14.561Z,98781.94
2023-02-19T04:28:43.086Z,98782.88
2023-02-19T04:31:11.041Z,98796.22
2023-02-19T04:33:38.694Z,98789.47
2023-02-19T04:36:07.109Z,98798.09
2023-02-19T04:38:34.447Z,98800.94
2023-02-19T04:41:01.812Z,98805.56
2023-02-19T04:43:29.130Z,98810.38
2023-02-19T04:46:01.323Z,98805.09
2023-02-19T04:48:28.943Z,98799.00
2023-02-19T04:50:56.376Z,98806.22
2023-02-19T04:53:23.839Z,98807.94
2023-02-19T04:55:53.347Z,98809.13
2023-02-19T04:58:21.357Z,98806.41
2023-02-19T05:00:52.850Z,98813.75
2023-02-19T05:03:20.376Z,98809.53
2023-02-19T05:05:47.866Z,98814.69
2023-02-19T05:08:15.207Z,98815.72
2023-02-19T05:10:42.654Z,98821.09
2023-02-19T05:13:10.026Z,98814.03
2023-02-19T05:15:37.672Z,98814.22
2023-02-19T05:18:05.170Z,98813.56
2023-02-19T05:20:32.588Z,98825.88
2023-02-19T05:22:59.930Z,98803.13
2023-02-19T05:25:27.288Z,98801.44
2023-02-19T05:28:14.592Z,98801.63
2023-02-19T05:30:41.954Z,98801.53
2023-02-19T05:33:09.374Z,98791.94
2023-02-19T05:35:41.910Z,98812.91
2023-02-19T05:38:09.374Z,98814.97
2023-02-19T05:40:37.201Z,98821.84
2023-02-19T05:43:05.510Z,98826.34
2023-02-19T05:45:33.159Z,98830.75
2023-02-19T05:48:00.826Z,98822.00
2023-02-19T05:50:28.682Z,98814.22
2023-02-19T05:52:56.745Z,98816.84
2023-02-19T05:55:24.156Z,98830.75
2023-02-19T05:57:52.263Z,98829.72
2023-02-19T06:00:21.312Z,98828.97
2023-02-19T06:02:49.193Z,98837.91
2023-02-19T06:05:16.592Z,98820.25
2023-02-19T06:07:44.132Z,98825.50
2023-02-19T06:10:12.269Z,98827.19
2023-02-19T06:12:40.017Z,98833.28
2023-02-19T06:15:07.608Z,98839.50
2023-02-19T06:17:35.752Z,98839.59
2023-02-19T06:20:03.655Z,98850.94
2023-02-19T06:22:31.084Z,98852.75
2023-02-19T06:24:58.578Z,98852.75
2023-02-19T06:27:25.948Z,98848.31
2023-02-19T06:29:53.247Z,98838.38
2023-02-19T06:32:20.887Z,98832.53
2023-02-19T06:34:48.487Z,98845.41
2023-02-19T06:37:15.856Z,98844.00
2023-02-19T06:39:43.852Z,98845.69
2023-02-19T06:42:11.191Z,98847.47
2023-02-19T06:44:38.596Z,98856.88
2023-02-19T06:47:06.010Z,98853.56
2023-02-19T06:49:33.405Z,98869.09
2023-02-19T06:52:01.970Z,98872.28
2023-02-19T06:54:29.385Z,98877.88
2023-02-19T06:56:58.931Z,98882.38
2023-02-19T06:59:26.465Z,98885.75
2023-02-19T07:01:53.789Z,98882.09
2023-02-19T07:04:21.169Z,98888.09
2023-02-19T07:06:48.639Z,98890.44
2023-02-19T07:09:16.005Z,98879.91
2023-02-19T07:11:43.524Z,98885.09
2023-02-19T07:14:15.514Z,98891.97
2023-02-19T07:16:43.817Z,98888.50
2023-02-19T07:19:12.060Z,98896.97
2023-02-19T07:21:39.460Z,98902.03
2023-02-19T07:24:07.012Z,98899.31
2023-02-19T07:26:34.598Z,98895.72
2023-02-19T07:29:02.075Z,98895.47
2023-02-19T07:31:29.714Z,98891.88
2023-02-19T07:33:57.213Z,98897.91
2023-02-19T07:36:25.755Z,98898.66
2023-02-19T07:39:01.484Z,98886.44
2023-02-19T07:41:28.933Z,98901.84
2023-02-19T07:43:58.566Z,98891.31
2023-02-19T07:46:26.271Z,98893.03
2023-02-19T07:48:53.589Z,98898.31
2023-02-19T07:51:21.312Z,98878.63
2023-02-19T07:53:52.402Z,98886.34
2023-02-19T07:56:20.621Z,98891.31
2023-02-19T07:58:48.102Z,98895.28
2023-02-19T08:01:18.350Z,98910.59
2023-02-19T08:03:46.239Z,98910.22
2023-02-19T08:06:14.328Z,98910.13
2023-02-19T08:08:41.737Z,98914.06
2023-02-19T08:11:28.264Z,98910.31
2023-02-19T08:13:55.681Z,98910.78
2023-02-19T08:16:36.908Z,98915.22
2023-02-19T08:19:08.426Z,98913.88
2023-02-19T08:21:35.739Z,98918.78
2023-02-19T08:24:03.143Z,98920.94
2023-02-19T08:26:30.637Z,98911.03
2023-02-19T08:28:59.013Z,98937.84
2023-02-19T08:31:27.089Z,98945.66
2023-02-19T08:33:54.642Z,98951.41
2023-02-19T08:36:22.112Z,98943.84
2023-02-19T08:38:49.480Z,98949.03
2023-02-19T08:41:16.924Z,98950.50
2023-02-19T08:43:44.486Z,98961.16
2023-02-19T08:46:12.546Z,98960.13
2023-02-19T08:48:40.206Z,98963.91
2023-02-19T08:51:10.212Z,98973.53
2023-02-19T08:53:38.706Z,98980.47
2023-02-19T08:56:11.705Z,98978.97
2023-02-19T08:58:39.270Z,98987.00
2023-02-19T09:01:12.314Z,98990.19
2023-02-19T09:03:40.160Z,98993.47
2023-02-19T09:06:07.993Z,98994.50
2023-02-19T09:08:35.466Z,98988.75
2023-02-19T09:11:04.635Z,98992.34
2023-02-19T09:13:32.081Z,98994.31
2023-02-19T09:15:59.602Z,99007.31
2023-02-19T09:18:27.449Z,99007.03
2023-02-19T09:20:54.832Z,99012.84
2023-02-19T09:23:22.420Z,99017.09
2023-02-19T09:25:50.490Z,99019.72
2023-02-19T09:28:17.971Z,99026.47
2023-02-19T09:30:45.326Z,99026.09
2023-02-19T09:33:12.764Z,99030.97
2023-02-19T09:35:40.926Z,99032.31
2023-02-19T09:38:10.443Z,99037.59
2023-02-19T09:40:39.116Z,99025.59
2023-02-19T09:43:15.477Z,99041.53
2023-02-19T09:45:42.893Z,99046.81
2023-02-19T09:48:10.791Z,99061.06
2023-02-19T09:50:44.264Z,99059.91
2023-02-19T09:53:25.681Z,99058.88
2023-02-19T09:55:53.628Z,99066.44
2023-02-19T09:58:27.300Z,99079.06
2023-02-19T10:00:56.055Z,99079.91
2023-02-19T10:03:31.908Z,99075.63
2023-02-19T10:06:01.889Z,99071.44
2023-02-19T10:08:32.897Z,99076.06
2023-02-19T10:11:01.809Z,99075.69
2023-02-19T10:13:44.542Z,99082.50
2023-02-19T10:16:17.489Z,99083.72
2023-02-19T10:18:45.902Z,99081.84
2023-02-19T10:21:19.811Z,99085.03
2023-02-19T10:23:49.614Z,99089.09
2023-02-19T10:26:16.980Z,99089.22
2023-02-19T10:28:44.297Z,99096.94
2023-02-19T10:31:21.237Z,99103.25
2023-02-19T10:33:54.165Z,99104.53
2023-02-19T10:36:40.232Z,99109.72
2023-02-19T10:39:42.226Z,99117.81
2023-02-19T10:42:20.830Z,99106.94
2023-02-19T10:45:01.867Z,99105.91
2023-02-19T10:47:30.926Z,99117.34
2023-02-19T10:49:59.836Z,99106.16
2023-02-19T10:52:36.200Z,99111.06
2023-02-19T10:55:28.332Z,99114.16
2023-02-19T10:57:56.622Z,99111.63
2023-02-19T11:00:30.378Z,99108.47
2023-02-19T11:03:21.148Z,99100.97
2023-02-19T11:06:04.204Z,99110.94
2023-02-19T11:08:35.078Z,99105.56
2023-02-19T11:11:02.695Z,99113.63
2023-02-19T11:13:32.569Z,99118.59
2023-02-19T11:16:00.825Z,99119.66
2023-02-19T11:18:33.062Z,99114.88
2023-02-19T11:21:05.651Z,99110.94
2023-02-19T11:23:37.278Z,99119.94
2023-02-19T11:26:13.997Z,99121.00
2023-02-19T11:28:41.992Z,99120.09
2023-02-19T11:31:32.035Z,99114.38
2023-02-19T11:34:01.090Z,99130.78
2023-02-19T11:36:34.165Z,99131.28
2023-02-19T11:39:19.865Z,99143.47
2023-02-19T11:42:05.650Z,99135.19
2023-02-19T11:44:49.655Z,99151.09
2023-02-19T11:47:42.488Z,99156.59
2023-02-19T11:50:27.695Z,99148.88
2023-02-19T11:53:09.527Z,99156.19
2023-02-19T11:55:52.013Z,99155.75
2023-02-19T11:58:34.690Z,99147.59
2023-02-19T12:01:28.862Z,99145.16
2023-02-19T12:04:20.262Z,99146.75
2023-02-19T12:06:53.382Z,99151.41
2023-02-19T12:09:20.669Z,99152.16
2023-02-19T12:12:11.965Z,99150.03
2023-02-19T12:14:42.255Z,99146.44
2023-02-19T12:17:48.032Z,99142.72
2023-02-19T12:20:36.328Z,99151.97
2023-02-19T12:23:41.405Z,99149.19
2023-02-19T12:26:41.718Z,99148.13
2023-02-19T12:29:44.172Z,99154.47
2023-02-19T12:32:40.826Z,99151.44
2023-02-19T12:35:29.723Z,99157.88
2023-02-19T12:38:10.117Z,99169.41
2023-02-19T12:41:19.630Z,99148.25
2023-02-19T12:43:53.611Z,99143.16
2023-02-19T12:46:32.922Z,99137.66
2023-02-19T12:49:27.466Z,99140.16
2023-02-19T12:52:15.542Z,99124.72
2023-02-19T12:54:45.099Z,99124.63
2023-02-19T12:57:25.145Z,99129.91
2023-02-19T13:00:23.323Z,99134.34
2023-02-19T13:03:06.518Z,99141.78
2023-02-19T13:06:03.652Z,99133.22
2023-02-19T13:08:42.089Z,99133.31
2023-02-19T13:11:39.236Z,99124.38
2023-02-19T13:14:18.549Z,99126.16
2023-02-19T13:16:50.771Z,99140.84
2023-02-19T13:19:18.282Z,99136.81
2023-02-19T13:22:09.019Z,99136.38
2023-02-19T13:24:40.766Z,99136.69
2023-02-19T13:27:39.165Z,99142.44
2023-02-19T13:30:27.014Z,99138.38
2023-02-19T13:33:18.844Z,99136.50
2023-02-19T13:36:10.163Z,99143.94
2023-02-19T13:38:45.772Z,99142.97
2023-02-19T13:41:27.860Z,99139.53
2023-02-19T13:44:03.944Z,99145.88
2023-02-19T13:46:39.962Z,99132.56
2023-02-19T13:49:40.494Z,99130.56
2023-02-19T13:52:29.856Z,99137.22
2023-02-19T13:55:41.337Z,99137.25
2023-02-19T13:58:33.953Z,99118.06
2023-02-19T14:01:07.413Z,99121.50
2023-02-19T14:03:38.028Z,99116.59
2023-02-19T14:06:07.655Z,99115.97
2023-02-19T14:08:57.046Z,99113.13
2023-02-19T14:11:42.959Z,99118.50
2023-02-19T14:14:36.758Z,99121.47
2023-02-19T14:17:05.911Z,99107.50
2023-02-19T14:19:42.427Z,99123.19
2023-02-19T14:22:50.141Z,99123.00
2023-02-19T14:25:39.003Z,99129.28
2023-02-19T14:28:15.816Z,99131.00
2023-02-19T14:30:43.176Z,99137.66
2023-02-19T14:33:11.690Z,99148.66
2023-02-19T14:35:42.942Z,99142.84
2023-02-19T14:38:32.402Z,99137.03
2023-02-19T14:41:00.136Z,99143.69
2023-02-19T14:43:28.574Z,99157.97
2023-02-19T14:46:01.592Z,99157.66
2023-02-19T14:48:30.998Z,99147.78
2023-02-19T14:51:07.050Z,99148.19
2023-02-19T14:53:39.126Z,99139.59
2023-02-19T14:56:07.452Z,99153.88
2023-02-19T14:58:36.911Z,99157.00
2023-02-19T15:01:05.654Z,99163.16
2023-02-19T15:03:37.021Z,99162.81
2023-02-19T15:06:07.980Z,99171.81
2023-02-19T15:08:48.428Z,99181.13
2023-02-19T15:11:21.880Z,99178.47
2023-02-19T15:13:56.142Z,99184.94
2023-02-19T15:16:26.028Z,99188.94
2023-02-19T15:18:54.354Z,99188.25
2023-02-19T15:21:33.022Z,99183.78
2023-02-19T15:24:03.152Z,99182.72
2023-02-19T15:26:42.990Z,99185.47
2023-02-19T15:29:15.751Z,99183.78
2023-02-19T15:31:51.925Z,99184.06
2023-02-19T15:34:31.281Z,99179.94
2023-02-19T15:37:05.251Z,99183.94
2023-02-19T15:39:41.892Z,99180.91
2023-02-19T15:42:15.026Z,99187.16
2023-02-19T15:45:16.956Z,99182.16
2023-02-19T15:47:53.323Z,99186.19
2023-02-19T15:50:30.404Z,99181.94
2023-02-19T15:53:12.708Z,99184.50
2023-02-19T15:56:07.332Z,99192.81
2023-02-19T15:58:37.377Z,99191.97
2023-02-19T16:01:08.496Z,99189.44
2023-02-19T16:03:36.197Z,99187.94
2023-02-19T16:06:15.884Z,99186.97
2023-02-19T16:09:04.653Z,99187.38
2023-02-19T16:11:40.242Z,99189.81
2023-02-19T16:14:30.100Z,99202.09
2023-02-19T16:17:11.478Z,99198.97
2023-02-19T16:19:58.695Z,99203.31
2023-02-19T16:22:29.989Z,99205.31
2023-02-19T16:25:03.284Z,99209.06
2023-02-19T16:27:37.237Z,99208.13
2023-02-19T16:30:09.942Z,99224.91
2023-02-19T16:32:37.392Z,99214.41
2023-02-19T16:35:05.919Z,99213.22
2023-02-19T16:37:44.131Z,99217.81
2023-02-19T16:40:31.347Z,99212.53
2023-02-19T16:43:13.614Z,99202.56
2023-02-19T16:45:44.713Z,99203.97
2023-02-19T16:48:12.633Z,99197.75
2023-02-19T16:50:43.971Z,99206.88
2023-02-19T16:53:25.229Z,99212.66
2023-02-19T16:55:53.067Z,99211.03
2023-02-19T16:58:21.322Z,99217.53
2023-02-19T17:00:48.758Z,99223.38
2023-02-19T17:03:20.655Z,99222.63
2023-02-19T17:05:48.388Z,99225.75
2023-02-19T17:08:37.065Z,99232.13
2023-02-19T17:11:07.474Z,99228.50
2023-02-19T17:13:34.811Z,99231.66
2023-02-19T17:16:02.333Z,99243.72
2023-02-19T17:18:29.970Z,99246.44
2023-02-19T17:21:05.803Z,99252.94
2023-02-19T17:23:33.092Z,99251.53
2023-02-19T17:26:00.423Z,99250.84
2023-02-19T17:28:27.764Z,99251.94
2023-02-19T17:30:55.334Z,99266.66
2023-02-19T17:33:22.749Z,99265.06
2023-02-19T17:35:50.140Z,99262.41
2023-02-19T17:38:17.517Z,99256.38
2023-02-19T17:40:45.274Z,99269.47
2023-02-19T17:43:12.614Z,99269.47
2023-02-19T17:45:40.056Z,99274.66
2023-02-19T17:48:08.958Z,99279.00
2023-02-19T17:50:36.265Z,99289.72
2023-02-19T17:53:03.579Z,99289.03
2023-02-19T17:55:30.955Z,99299.59
2023-02-19T17:57:58.246Z,99295.34
2023-02-19T18:00:31.682Z,99303.19
2023-02-19T18:02:59.259Z,99303.75
2023-02-19T18:05:26.623Z,99310.97
2023-02-19T18:07:53.950Z,99316.09
2023-02-19T18:10:23.480Z,99325.13
2023-02-19T18:12:50.863Z,99319.25
2023-02-19T18:15:20.861Z,99326.41
2023-02-19T18:17:48.459Z,99329.56
2023-02-19T18:20:18.304Z,99333.47
2023-02-19T18:22:45.600Z,99339.50
2023-02-19T18:25:13.194Z,99334.47
2023-02-19T18:27:40.549Z,99339.66
2023-02-19T18:30:09.333Z,99341.00
2023-02-19T18:32:37.083Z,99345.25
2023-02-19T18:35:05.447Z,99347.13
2023-02-19T18:37:33.862Z,99342.63
2023-02-19T18:40:01.697Z,99337.03
2023-02-19T18:42:29.490Z,99345.25
2023-02-19T18:44:57.180Z,99348.75
2023-02-19T18:47:25.902Z,99355.28
2023-02-19T18:49:55.249Z,99345.31
2023-02-19T18:52:24.832Z,99350.44
2023-02-19T18:54:54.965Z,99338.06
2023-02-19T18:57:23.832Z,99350.53
2023-02-19T18:59:51.334Z,99344.34
2023-02-19T19:02:18.971Z,99356.00
2023-02-19T19:04:51.385Z,99354.38
2023-02-19T19:07:19.543Z,99358.44
2023-02-19T19:09:47.205Z,99362.47
2023-02-19T19:12:15.407Z,99357.78
2023-02-19T19:14:43.151Z,99356.09
2023-02-19T19:17:10.617Z,99365.44
2023-02-19T19:19:38.159Z,99377.81
2023-02-19T19:22:05.952Z,99375.81
2023-02-19T19:24:33.306Z,99381.84
2023-02-19T19:27:00.710Z,99385.50
2023-02-19T19:29:28.644Z,99381.00
2023-02-19T19:31:56.047Z,99381.25
2023-02-19T19:34:23.456Z,99383.06
2023-02-19T19:36:50.798Z,99383.06
2023-02-19T19:39:19.311Z,99382.97
2023-02-19T19:41:46.699Z,99387.56
2023-02-19T19:44:14.243Z,99382.19
2023-02-19T19:46:48.644Z,99379.88
2023-02-19T19:49:20.226Z,99392.31
2023-02-19T19:51:48.236Z,99383.81
2023-02-19T19:54:15.942Z,99400.31
2023-02-19T19:56:45.111Z,99400.59
2023-02-19T19:59:14.374Z,99403.00
2023-02-19T20:01:51.916Z,99389.81
2023-02-19T20:04:21.909Z,99381.06
2023-02-19T20:06:49.782Z,99386.84
2023-02-19T20:09:18.211Z,99384.31
2023-02-19T20:11:50.275Z,99385.16
2023-02-19T20:14:19.387Z,99384.06
2023-02-19T20:16:47.675Z,99381.31
2023-02-19T20:19:16.315Z,99372.81
2023-02-19T20:21:48.111Z,99372.88
2023-02-19T20:24:17.726Z,99380.91
2023-02-19T20:26:45.400Z,99378.44
2023-02-19T20:29:13.071Z,99392.28
2023-02-19T20:31:40.750Z,99389.59
2023-02-19T20:34:08.232Z,99405.03
2023-02-19T20:36:46.297Z,99412.94
2023-02-19T20:39:14.832Z,99413.91
2023-02-19T20:41:46.462Z,99402.59
2023-02-19T20:44:14.593Z,99393.91
2023-02-19T20:46:47.354Z,99383.06
2023-02-19T20:49:16.010Z,99374.75
2023-02-19T20:51:58.472Z,99373.81
2023-02-19T20:54:28.249Z,99373.28
2023-02-19T20:56:57.532Z,99371.91
2023-02-19T20:59:30.402Z,99375.88
2023-02-19T21:01:58.935Z,99380.03
2023-02-19T21:04:26.842Z,99377.91
2023-02-19T21:06:54.265Z,99381.94
2023-02-19T21:09:24.598Z,99378.34
2023-02-19T21:11:53.234Z,99375.19
2023-02-19T21:14:20.704Z,99374.41
2023-02-19T21:16:48.120Z,99370.00
2023-02-19T21:19:15.671Z,99368.06
2023-02-19T21:21:43.112Z,99377.81
2023-02-19T21:24:10.788Z,99373.00
2023-02-19T21:26:39.967Z,99381.03
2023-02-19T21:29:10.719Z,99374.78
2023-02-19T21:31:40.729Z,99388.16
2023-02-19T21:34:09.834Z,99378.78
2023-02-19T21:36:37.156Z,99381.59
2023-02-19T21:39:06.456Z,99383.63
2023-02-19T21:41:34.228Z,99375.22
2023-02-19T21:44:03.527Z,99378.13
2023-02-19T21:46:32.824Z,99374.81
2023-02-19T21:49:00.538Z,99374.22
2023-02-19T21:51:33.697Z,99379.38
2023-02-19T21:54:01.427Z,99375.25
2023-02-19T21:56:31.923Z,99372.53
2023-02-19T21:58:59.850Z,99379.06
2023-02-19T22:01:30.056Z,99381.78
2023-02-19T22:03:57.482Z,99381.88
2023-02-19T22:06:28.904Z,99376.69
2023-02-19T22:08:56.975Z,99380.09
2023-02-19T22:11:24.447Z,99382.78
2023-02-19T22:13:52.245Z,99382.31
2023-02-19T22:16:20.324Z,99387.91
2023-02-19T22:18:52.993Z,99398.28
2023-02-19T22:21:21.938Z,99395.41
2023-02-19T22:23:51.052Z,99405.00
2023-02-19T22:26:23.679Z,99396.84
2023-02-19T22:28:51.472Z,99401.28
2023-02-19T22:31:21.374Z,99409.06
2023-02-19T22:33:48.914Z,99413.91
2023-02-19T22:36:20.815Z,99406.09
2023-02-19T22:38:49.057Z,99408.22
2023-02-19T22:41:17.906Z,99418.16
2023-02-19T22:43:45.747Z,99410.19
2023-02-19T22:46:17.143Z,99413.75
2023-02-19T22:48:44.604Z,99404.31
2023-02-19T22:51:13.616Z,99406.84
2023-02-19T22:53:51.683Z,99407.38
2023-02-19T22:56:20.931Z,99410.19
2023-02-19T22:58:48.331Z,99409.91
2023-02-19T23:01:15.987Z,99414.50
2023-02-19T23:03:47.506Z,99426.03
2023-02-19T23:06:15.706Z,99433.53
2023-02-19T23:08:43.501Z,99426.72
2023-02-19T23:11:12.021Z,99424.25
2023-02-19T23:13:42.429Z,99428.44
2023-02-19T23:16:09.950Z,99434.19
2023-02-19T23:18:37.413Z,99425.09
2023-02-19T23:21:04.876Z,99429.78
2023-02-19T23:23:32.255Z,99432.53
2023-02-19T23:25:59.589Z,99422.47
2023-02-19T23:28:26.970Z,99426.47
2023-02-19T23:30:54.421Z,99426.47
2023-02-19T23:33:21.843Z,99419.22
2023-02-19T23:35:49.185Z,99427.19
2023-02-19T23:38:16.578Z,99425.91
2023-02-19T23:40:45.295Z,99430.16
2023-02-19T23:43:12.732Z,99430.59
2023-02-19T23:45:40.287Z,99429.22
2023-02-19T23:48:07.708Z,99437.72
2023-02-19T23:50:35.067Z,99437.66
2023-02-19T23:53:02.646Z,99425.81
2023-02-19T23:55:30.136Z,99427.84
2023-02-19T23:57:57.462Z,99424.34
